Terminal Aerodrome Forecast
Issued by NWS San Angelo, TX

Home | Current Version | Previous Version | Text Only | Print | Product List | Glossary On
Versions: 1 2 3 4 5 6 7 8 9 10 11 12 13 14 15 16 17 18 19 20 21 22 23 24
000
FTUS44 KSJT 201700
TAFSJT
TAF
KSJT 201720Z 2018/2118 14008KT P6SM VCSH BKN050
      TEMPO 2018/2020 BKN020
     FM210200 11006KT P6SM BKN100
     FM210800 VRB04KT P6SM BKN025=

USA.gov is the U.S. government's official web portal to all federal, state and local government web resources and services.